PWSweather.com
Personal Weather Stations
Station Observations
MELLIEHA
Qortin, MelliehaMT

QortinMelliehaMT

Lat: 35.963031, Lon: 14.371647

Elevation: 378

Station Type: WMR200

http://www.it-temp.com

High Low Average
Temperature 71.4°F21.9°C 52.5°F11.4°C 60.0°F15.6°C
Dew Point 30.5°F-0.8°C 23.6°F-4.7°C 26.9°F-2.8°C
Winds 5.2 mph 8.4 kmh Calm Calm 1.0 mph SE1.6 kmh SE
Wind Gusts 6.7 mph10.8 kmh -- 2.0 mph3.2 kmh
Humidity 40% 22% 29%
Pressure 30.36 in1028.1 mb 30.09 in1019.0 mb -
Precipitation 0.00 in0.0 mm - -
Hour Temp Dew Point Humidity Winds Wind Gusts Pressure Precip Precip Rate Daily Precip Total
01:00 AM 55.2°F12.9°C 28.7°F-1.8°C 36% 3.0 mph N4.8 kmh N 5.6 mph9.0 kmh 30.09 in1019.0 mb 0.00 in0.0 mm 0.00 in/hr0.0 mm/hr 0.00 in0.0 mm
02:00 AM 54.7°F12.6°C 28.2°F-2.1°C 36% 1.4 mph N2.3 kmh N 2.2 mph3.5 kmh 30.09 in1019.0 mb 0.00 in0.0 mm 0.00 in/hr0.0 mm/hr 0.00 in0.0 mm
03:00 AM 53.8°F12.1°C 30.0°F-1.1°C 40% 2.6 mph N4.2 kmh N 5.4 mph8.7 kmh 30.09 in1019.0 mb 0.00 in0.0 mm 0.00 in/hr0.0 mm/hr 0.00 in0.0 mm
04:00 AM 53.1°F11.7°C 23.9°F-4.5°C 32% Calm Calm -- 30.09 in1019.0 mb 0.00 in0.0 mm 0.00 in/hr0.0 mm/hr 0.00 in0.0 mm
05:00 AM 52.9°F11.6°C 25.9°F-3.4°C 35% Calm Calm -- 30.09 in1019.0 mb 0.00 in0.0 mm 0.00 in/hr0.0 mm/hr 0.00 in0.0 mm
06:00 AM 52.5°F11.4°C 24.9°F-3.9°C 34% Calm Calm -- 30.12 in1020.0 mb 0.00 in0.0 mm 0.00 in/hr0.0 mm/hr 0.00 in0.0 mm
07:00 AM 54.2°F12.3°C 27.1°F-2.7°C 35% Calm Calm -- 30.15 in1021.0 mb 0.00 in0.0 mm 0.00 in/hr0.0 mm/hr 0.00 in0.0 mm
08:00 AM 64.3°F17.9°C 29.6°F-1.3°C 27% Calm Calm -- 30.18 in1022.0 mb 0.00 in0.0 mm 0.00 in/hr0.0 mm/hr 0.00 in0.0 mm
09:00 AM 67.3°F19.6°C 28.2°F-2.1°C 23% Calm Calm -- 30.18 in1022.0 mb 0.00 in0.0 mm 0.00 in/hr0.0 mm/hr 0.00 in0.0 mm
10:00 AM 71.4°F21.9°C 30.5°F-0.8°C 22% Calm Calm -- 30.21 in1023.0 mb 0.00 in0.0 mm 0.00 in/hr0.0 mm/hr 0.00 in0.0 mm
11:00 AM 71.0°F21.7°C 30.2°F-1.0°C 22% 0.6 mph NE1.0 kmh NE 5.4 mph8.7 kmh 30.21 in1023.0 mb 0.00 in0.0 mm 0.00 in/hr0.0 mm/hr 0.00 in0.0 mm
12:00 PM 68.6°F20.3°C 29.3°F-1.5°C 23% 4.5 mph NE7.2 kmh NE 5.9 mph9.5 kmh 30.21 in1023.0 mb 0.00 in0.0 mm 0.00 in/hr0.0 mm/hr 0.00 in0.0 mm
01:00 PM 66.9°F19.4°C 27.9°F-2.3°C 23% 4.4 mph NE7.1 kmh NE 5.6 mph9.0 kmh 30.21 in1023.0 mb 0.00 in0.0 mm 0.00 in/hr0.0 mm/hr 0.00 in0.0 mm
02:00 PM 67.1°F19.5°C 28.0°F-2.2°C 23% 5.2 mph NE8.4 kmh NE 6.7 mph10.8 kmh 30.18 in1022.0 mb 0.00 in0.0 mm 0.00 in/hr0.0 mm/hr 0.00 in0.0 mm
03:00 PM 65.2°F18.4°C 26.4°F-3.1°C 23% 3.1 mph NNE5.0 kmh NNE 6.0 mph9.7 kmh 30.21 in1023.0 mb 0.00 in0.0 mm 0.00 in/hr0.0 mm/hr 0.00 in0.0 mm
04:00 PM 63.7°F17.6°C 26.2°F-3.2°C 24% 3.7 mph NE6.0 kmh NE 5.9 mph9.5 kmh 30.21 in1023.0 mb 0.00 in0.0 mm 0.00 in/hr0.0 mm/hr 0.00 in0.0 mm
05:00 PM 63.0°F17.2°C 25.6°F-3.6°C 24% Calm Calm -- 30.24 in1024.0 mb 0.00 in0.0 mm 0.00 in/hr0.0 mm/hr 0.00 in0.0 mm
06:00 PM 58.8°F14.9°C 24.0°F-4.4°C 26% Calm Calm 2.6 mph4.2 kmh 30.27 in1025.1 mb 0.00 in0.0 mm 0.00 in/hr0.0 mm/hr 0.00 in0.0 mm
07:00 PM 56.3°F13.5°C 23.6°F-4.7°C 28% Calm Calm -- 30.27 in1025.1 mb 0.00 in0.0 mm 0.00 in/hr0.0 mm/hr 0.00 in0.0 mm
08:00 PM 54.5°F12.5°C 24.4°F-4.2°C 31% Calm Calm -- 30.30 in1026.1 mb 0.00 in0.0 mm 0.00 in/hr0.0 mm/hr 0.00 in0.0 mm
09:00 PM 54.1°F12.3°C 24.1°F-4.4°C 31% Calm Calm -- 30.30 in1026.1 mb 0.00 in0.0 mm 0.00 in/hr0.0 mm/hr 0.00 in0.0 mm
10:00 PM 55.6°F13.1°C 26.2°F-3.2°C 32% Calm Calm -- 30.33 in1027.1 mb 0.00 in0.0 mm 0.00 in/hr0.0 mm/hr 0.00 in0.0 mm
11:00 PM 55.8°F13.2°C 26.3°F-3.2°C 32% Calm Calm -- 30.36 in1028.1 mb 0.00 in0.0 mm 0.00 in/hr0.0 mm/hr 0.00 in0.0 mm